Time;durP1;ratioP1;P1;durP2;ratioP2;P2;SDS_P1;SDS_P2;PMS_P1;PMS_P2;Temp;Humidity;BMP_temperature;BMP_pressure;BME280_temperature;BME280_humidity;BME280_pressure;Samples;Min_cycle;Max_cycle;Signal;HPM_P1;HPM_P2
2022/01/06 00:00:28;;;;;;;21.30;3.15;;;5.80;99.90;;;;;;5057481;28;20028;-72
2022/01/06 00:02:54;;;;;;;25.42;3.17;;;5.80;99.90;;;;;;5039769;28;20100;-72
2022/01/06 00:05:20;;;;;;;27.35;3.60;;;5.80;99.90;;;;;;5057398;28;20021;-72
2022/01/06 00:07:45;;;;;;;27.73;3.28;;;5.70;99.90;;;;;;5039404;28;20037;-72
2022/01/06 00:10:13;;;;;;;36.53;3.28;;;5.70;99.90;;;;;;5056967;28;20542;-73
2022/01/06 00:12:49;;;;;;;20.92;3.33;;;5.70;99.90;;;;;;5058304;28;20024;-73
2022/01/06 00:23:27;;;;;;;26.52;3.35;;;5.70;99.90;;;;;;5058279;28;20027;-73
2022/01/06 00:25:52;;;;;;;26.88;3.00;;;5.60;99.90;;;;;;5059006;28;20040;-73
2022/01/06 00:28:19;;;;;;;25.33;2.95;;;5.60;99.90;;;;;;5061752;28;20424;-73
2022/01/06 00:30:45;;;;;;;24.95;3.08;;;5.60;99.90;;;;;;5061319;28;20326;-72
2022/01/06 00:33:11;;;;;;;22.73;2.80;;;5.60;99.90;;;;;;5061441;28;20382;-73
2022/01/06 00:35:37;;;;;;;23.63;3.35;;;5.60;99.90;;;;;;5062537;28;20067;-72
2022/01/06 00:38:06;;;;;;;26.67;3.70;;;5.60;99.90;;;;;;5044489;28;20087;-72
2022/01/06 00:40:32;;;;;;;22.20;2.47;;;5.60;99.90;;;;;;5063254;28;20350;-72
2022/01/06 00:42:58;;;;;;;19.33;2.97;;;5.60;99.90;;;;;;5062651;28;20029;-73
2022/01/06 00:45:23;;;;;;;26.10;4.35;;;5.60;99.90;;;;;;5062857;28;20025;-72
2022/01/06 00:47:49;;;;;;;22.98;3.08;;;5.60;99.90;;;;;;5043480;28;20496;-72
2022/01/06 00:50:15;;;;;;;24.38;3.15;;;5.60;99.90;;;;;;5060880;28;20093;-72
2022/01/06 00:52:40;;;;;;;20.52;2.58;;;5.50;99.90;;;;;;5060993;28;20024;-72
2022/01/06 00:55:06;;;;;;;14.68;2.30;;;5.50;99.90;;;;;;5043579;28;20036;-72
2022/01/06 00:57:32;;;;;;;24.83;2.70;;;5.50;99.90;;;;;;5043268;28;20025;-73
2022/01/06 00:59:57;;;;;;;22.60;3.03;;;5.50;99.90;;;;;;5060947;28;20029;-72
2022/01/06 01:02:23;;;;;;;27.65;2.97;;;5.40;99.90;;;;;;5061457;28;20025;-72
2022/01/06 01:04:48;;;;;;;23.67;3.15;;;5.40;99.90;;;;;;5060750;28;20067;-73
2022/01/06 01:07:14;;;;;;;28.10;2.70;;;5.40;99.90;;;;;;5060502;28;20025;-72
2022/01/06 01:09:40;;;;;;;22.58;2.55;;;5.40;99.90;;;;;;5060049;28;20020;-73
2022/01/06 01:12:06;;;;;;;15.60;2.45;;;5.40;99.90;;;;;;5059427;28;20031;-72
2022/01/06 01:14:45;;;;;;;18.20;2.28;;;5.40;99.90;;;;;;5059586;28;20063;-73
2022/01/06 01:17:15;;;;;;;14.60;2.13;;;5.50;99.90;;;;;;5058925;28;20063;-73
2022/01/06 01:19:41;;;;;;;17.73;2.22;;;5.50;99.90;;;;;;5059162;28;20028;-72
2022/01/06 01:22:08;;;;;;;12.98;1.90;;;5.50;99.90;;;;;;5059058;28;20025;-72
2022/01/06 01:24:34;;;;;;;17.90;2.00;;;5.50;99.90;;;;;;5058839;28;20514;-72
2022/01/06 01:26:59;;;;;;;11.50;2.20;;;5.50;99.90;;;;;;5060443;28;20099;-72
2022/01/06 01:29:27;;;;;;;11.98;2.03;;;5.50;99.90;;;;;;5059577;28;20044;-73
2022/01/06 01:31:55;;;;;;;18.08;2.17;;;5.40;99.90;;;;;;5060029;28;20049;-73
2022/01/06 01:34:25;;;;;;;14.38;2.08;;;5.40;99.90;;;;;;5060866;28;20025;-72
2022/01/06 01:36:52;;;;;;;13.30;2.20;;;5.40;99.90;;;;;;5059487;28;20021;-72
2022/01/06 01:39:18;;;;;;;23.17;2.50;;;5.40;99.90;;;;;;5061163;28;20024;-72
2022/01/06 01:41:44;;;;;;;16.13;2.47;;;5.30;99.90;;;;;;5060327;28;20096;-72
2022/01/06 01:44:14;;;;;;;12.52;1.92;;;5.30;99.90;;;;;;5059685;28;20017;-72
2022/01/06 01:46:47;;;;;;;15.13;2.22;;;5.30;99.90;;;;;;5058980;28;20025;-72
2022/01/06 01:49:28;;;;;;;19.15;2.90;;;5.30;99.90;;;;;;5059466;28;20048;-72
2022/01/06 01:51:54;;;;;;;12.25;2.08;;;5.30;99.90;;;;;;5060094;28;20044;-72
2022/01/06 01:54:19;;;;;;;18.35;2.40;;;5.20;99.90;;;;;;5060171;28;20024;-72
2022/01/06 01:56:45;;;;;;;19.08;2.05;;;5.20;99.90;;;;;;5059722;28;20456;-72
2022/01/06 01:59:11;;;;;;;12.85;2.05;;;5.20;99.90;;;;;;5060253;28;20029;-72
2022/01/06 02:01:37;;;;;;;18.35;2.22;;;5.20;99.90;;;;;;5059805;28;20029;-73
2022/01/06 02:04:03;;;;;;;15.52;2.38;;;5.20;99.90;;;;;;5041284;28;20029;-73
2022/01/06 02:06:29;;;;;;;19.85;2.85;;;5.20;99.90;;;;;;5058982;28;20358;-73
2022/01/06 02:08:54;;;;;;;18.65;3.38;;;5.20;99.90;;;;;;5058956;28;20025;-73
2022/01/06 02:11:21;;;;;;;23.13;2.70;;;5.10;99.90;;;;;;5041150;28;20029;-73
2022/01/06 02:13:55;;;;;;;14.60;2.55;;;5.10;99.90;;;;;;5040914;28;20025;-73
2022/01/06 02:16:23;;;;;;;23.95;3.42;;;5.10;99.90;;;;;;5058312;28;20100;-73
2022/01/06 02:18:50;;;;;;;20.55;2.50;;;5.10;99.90;;;;;;5058154;28;20029;-73
2022/01/06 02:21:15;;;;;;;19.38;2.75;;;5.10;99.90;;;;;;5058348;28;20029;-73
2022/01/06 02:23:42;;;;;;;18.85;3.03;;;5.10;99.90;;;;;;5057539;28;20909;-73
2022/01/06 02:26:08;;;;;;;17.05;2.20;;;5.10;99.90;;;;;;5057988;28;20033;-73
2022/01/06 02:28:33;;;;;;;14.52;2.50;;;5.10;99.90;;;;;;5058578;28;20377;-73
2022/01/06 02:30:59;;;;;;;25.17;3.17;;;5.00;99.90;;;;;;5057965;28;20035;-73
2022/01/06 02:33:25;;;;;;;19.83;2.92;;;5.00;99.90;;;;;;5057880;28;20029;-73
2022/01/06 02:35:52;;;;;;;14.98;2.38;;;5.00;99.90;;;;;;5057662;28;20045;-73
2022/01/06 02:38:18;;;;;;;22.13;2.08;;;4.90;99.90;;;;;;5057822;28;20021;-73
2022/01/06 02:40:45;;;;;;;20.15;2.17;;;4.90;99.90;;;;;;5057901;28;20060;-73
2022/01/06 02:43:13;;;;;;;16.75;2.05;;;4.90;99.90;;;;;;5058438;28;20060;-73
2022/01/06 02:45:39;;;;;;;21.65;2.50;;;4.90;99.90;;;;;;5058328;28;20473;-73
2022/01/06 02:48:10;;;;;;;28.52;3.28;;;4.90;99.90;;;;;;5058277;28;20031;-73
2022/01/06 02:50:38;;;;;;;18.27;2.50;;;4.80;99.90;;;;;;5057969;28;20465;-73
2022/01/06 02:53:04;;;;;;;20.88;2.45;;;4.80;99.90;;;;;;5058282;28;20021;-73
2022/01/06 02:55:30;;;;;;;20.65;2.70;;;4.80;99.90;;;;;;5057732;28;20021;-73
2022/01/06 02:57:56;;;;;;;15.57;2.45;;;4.80;99.90;;;;;;5058350;28;20025;-73
2022/01/06 03:00:22;;;;;;;22.88;2.85;;;4.80;99.90;;;;;;5057877;28;20446;-73
2022/01/06 03:02:48;;;;;;;21.00;2.75;;;4.80;99.90;;;;;;5057576;28;20028;-73
2022/01/06 03:05:15;;;;;;;22.80;2.80;;;4.90;99.90;;;;;;5058123;28;20021;-73
2022/01/06 03:07:41;;;;;;;19.58;3.45;;;4.90;99.90;;;;;;5057896;28;20021;-72
2022/01/06 03:10:10;;;;;;;30.92;2.95;;;4.90;99.90;;;;;;5058079;28;20035;-73
2022/01/06 03:12:39;;;;;;;17.80;2.58;;;4.90;99.90;;;;;;5057920;28;20031;-73
2022/01/06 03:15:10;;;;;;;23.98;2.88;;;4.90;99.90;;;;;;5057869;28;20021;-73
2022/01/06 03:17:37;;;;;;;25.00;2.70;;;4.90;99.90;;;;;;5057657;28;20358;-73
2022/01/06 03:20:05;;;;;;;16.98;2.67;;;5.00;99.90;;;;;;5057863;28;20025;-73
2022/01/06 03:22:31;;;;;;;16.92;2.30;;;5.00;99.90;;;;;;5057446;28;20564;-73
2022/01/06 03:24:56;;;;;;;23.08;2.33;;;5.10;99.90;;;;;;5056605;28;20074;-73
2022/01/06 03:27:22;;;;;;;13.52;2.08;;;5.10;99.90;;;;;;5056235;28;20389;-73
2022/01/06 03:29:50;;;;;;;12.23;2.03;;;5.00;99.90;;;;;;5059055;28;20095;-72
2022/01/06 03:32:19;;;;;;;14.73;2.17;;;5.00;99.90;;;;;;5059432;28;20029;-72
2022/01/06 03:34:46;;;;;;;19.42;2.25;;;5.00;99.90;;;;;;5056831;28;20511;-72
2022/01/06 03:37:12;;;;;;;17.90;2.30;;;5.00;99.90;;;;;;5057293;28;20496;-72
2022/01/06 03:39:39;;;;;;;14.35;2.10;;;4.90;99.90;;;;;;5057062;28;20025;-72
2022/01/06 03:42:05;;;;;;;15.15;2.20;;;4.90;99.90;;;;;;5056633;28;20104;-72
2022/01/06 03:44:30;;;;;;;22.15;2.70;;;4.80;99.90;;;;;;5057264;28;20055;-72
2022/01/06 03:46:56;;;;;;;13.68;2.13;;;4.80;99.90;;;;;;5057623;28;20028;-72
2022/01/06 03:49:22;;;;;;;15.40;2.70;;;4.90;99.90;;;;;;5056497;28;20025;-72
2022/01/06 03:51:48;;;;;;;17.15;1.65;;;5.00;99.90;;;;;;5056541;28;20040;-72
2022/01/06 03:54:13;;;;;;;11.02;1.70;;;5.00;99.90;;;;;;5056385;28;20024;-72
2022/01/06 03:56:39;;;;;;;6.20;1.17;;;5.00;99.90;;;;;;5056339;28;20018;-72
2022/01/06 03:59:05;;;;;;;7.85;1.20;;;5.10;99.90;;;;;;5058021;28;20381;-72
2022/01/06 04:01:31;;;;;;;10.43;1.45;;;5.20;99.90;;;;;;5059156;28;20029;-72
2022/01/06 04:03:57;;;;;;;9.80;1.30;;;5.30;99.90;;;;;;5061273;28;20112;-72
2022/01/06 04:06:23;;;;;;;10.35;1.60;;;5.30;99.90;;;;;;5061157;28;20045;-71
2022/01/06 04:08:48;;;;;;;9.50;1.58;;;5.30;99.90;;;;;;5061005;28;20029;-72
2022/01/06 04:11:14;;;;;;;8.20;1.65;;;5.30;99.90;;;;;;5060582;28;20033;-72
2022/01/06 04:13:40;;;;;;;10.65;1.30;;;5.30;99.90;;;;;;5059860;28;20021;-72
2022/01/06 04:16:10;;;;;;;8.73;1.60;;;5.30;99.90;;;;;;5059190;28;20029;-72
2022/01/06 04:18:36;;;;;;;8.43;1.20;;;5.30;99.90;;;;;;5059985;28;20021;-72
2022/01/06 04:21:03;;;;;;;9.13;1.73;;;5.20;99.90;;;;;;5059390;28;20029;-72
2022/01/06 04:23:29;;;;;;;7.85;1.10;;;5.20;99.90;;;;;;5059712;28;20029;-72
2022/01/06 04:25:54;;;;;;;7.45;1.30;;;5.20;99.90;;;;;;5058542;28;20043;-72
2022/01/06 04:28:20;;;;;;;10.23;1.55;;;5.20;99.90;;;;;;5059507;28;20040;-73
2022/01/06 04:30:45;;;;;;;9.75;1.23;;;5.10;99.90;;;;;;5059351;28;20025;-71
2022/01/06 04:33:11;;;;;;;7.90;1.25;;;5.10;99.90;;;;;;5059360;28;20025;-72
2022/01/06 04:35:37;;;;;;;10.77;1.20;;;5.10;99.90;;;;;;5059430;28;20035;-72
2022/01/06 04:38:02;;;;;;;15.10;1.67;;;5.10;99.90;;;;;;5060608;28;20025;-72
2022/01/06 04:40:28;;;;;;;9.10;1.20;;;5.00;99.90;;;;;;5059585;28;20021;-72
2022/01/06 04:42:53;;;;;;;11.07;1.40;;;5.00;99.90;;;;;;5058975;28;20060;-73
2022/01/06 04:45:19;;;;;;;10.18;1.48;;;5.00;99.90;;;;;;5059014;28;20021;-73
2022/01/06 04:47:44;;;;;;;12.55;1.40;;;5.00;99.90;;;;;;5059669;28;20032;-73
2022/01/06 04:50:10;;;;;;;11.85;1.30;;;5.00;99.90;;;;;;5058312;28;20337;-73
2022/01/06 04:52:36;;;;;;;14.38;1.90;;;5.00;99.90;;;;;;5059369;28;20079;-73
2022/01/06 04:55:02;;;;;;;10.65;1.40;;;4.90;99.90;;;;;;5058709;28;20029;-73
2022/01/06 04:57:28;;;;;;;9.27;1.58;;;5.00;99.90;;;;;;5059024;28;20032;-73
2022/01/06 04:59:53;;;;;;;9.00;1.40;;;4.90;99.90;;;;;;5059378;28;20025;-73
2022/01/06 05:02:19;;;;;;;8.68;1.40;;;4.90;99.90;;;;;;5059300;28;20018;-73
2022/01/06 05:04:44;;;;;;;7.45;1.33;;;4.90;99.90;;;;;;5059417;28;20033;-73
2022/01/06 05:07:10;;;;;;;7.07;1.20;;;4.90;99.90;;;;;;5059698;28;20059;-73
2022/01/06 05:09:35;;;;;;;9.88;1.35;;;4.90;99.90;;;;;;5059213;28;20025;-73
2022/01/06 05:12:01;;;;;;;8.82;1.20;;;4.90;99.90;;;;;;5059367;28;20040;-72
2022/01/06 05:14:28;;;;;;;7.22;1.38;;;4.80;99.90;;;;;;5059204;28;20036;-73
2022/01/06 05:16:56;;;;;;;9.68;1.10;;;4.80;99.90;;;;;;5059067;28;20022;-73
2022/01/06 05:19:23;;;;;;;10.35;1.40;;;4.70;99.90;;;;;;5059095;28;20021;-73
2022/01/06 05:21:48;;;;;;;10.55;1.60;;;4.70;99.90;;;;;;5060034;28;20104;-73
2022/01/06 05:24:15;;;;;;;7.05;1.42;;;4.70;99.90;;;;;;5059755;28;20091;-73
2022/01/06 05:26:41;;;;;;;8.73;1.45;;;4.60;99.90;;;;;;5059895;28;20077;-73
2022/01/06 05:29:09;;;;;;;11.55;1.77;;;4.70;99.90;;;;;;5059212;28;20067;-73
2022/01/06 05:31:35;;;;;;;8.85;1.40;;;4.60;99.90;;;;;;5059206;28;20087;-73
2022/01/06 05:34:01;;;;;;;11.32;1.50;;;4.50;99.90;;;;;;5058960;28;20017;-73
2022/01/06 05:36:26;;;;;;;11.65;1.15;;;4.50;99.90;;;;;;5058042;28;20032;-73
2022/01/06 05:38:52;;;;;;;9.73;1.30;;;4.50;99.90;;;;;;5058514;28;20037;-73
2022/01/06 05:41:18;;;;;;;10.15;1.33;;;4.40;99.90;;;;;;5058460;28;20021;-73
2022/01/06 05:43:43;;;;;;;6.53;1.38;;;4.40;99.90;;;;;;5058894;28;20032;-73
2022/01/06 05:46:09;;;;;;;7.20;1.45;;;4.40;99.90;;;;;;5059435;28;20092;-73
2022/01/06 05:48:34;;;;;;;9.50;1.25;;;4.30;99.90;;;;;;5058642;28;20443;-73
2022/01/06 05:51:00;;;;;;;8.65;1.33;;;4.30;99.90;;;;;;5059222;28;20033;-73
2022/01/06 05:53:25;;;;;;;6.88;1.38;;;4.30;99.90;;;;;;5058517;28;20025;-73
2022/01/06 05:55:51;;;;;;;9.25;1.52;;;4.30;99.90;;;;;;5059169;28;20111;-72
2022/01/06 05:58:16;;;;;;;13.73;1.55;;;4.20;99.90;;;;;;5058418;28;20057;-73
2022/01/06 06:00:43;;;;;;;11.40;2.08;;;4.20;99.90;;;;;;5058008;28;20032;-72
2022/01/06 06:03:08;;;;;;;12.15;2.00;;;4.20;99.90;;;;;;5058708;28;20025;-73
2022/01/06 06:05:34;;;;;;;9.52;1.55;;;4.10;99.90;;;;;;5058428;28;20364;-72
2022/01/06 06:08:00;;;;;;;11.10;1.65;;;4.10;99.90;;;;;;5058964;28;20396;-72
2022/01/06 06:10:26;;;;;;;9.93;1.50;;;4.10;99.90;;;;;;5060108;28;20056;-73
2022/01/06 06:12:53;;;;;;;11.15;1.63;;;4.10;99.90;;;;;;5060129;28;20025;-72
2022/01/06 06:15:21;;;;;;;13.55;2.25;;;4.00;99.90;;;;;;5060614;28;20472;-72
2022/01/06 06:17:46;;;;;;;10.75;2.50;;;4.00;99.90;;;;;;5058763;28;20017;-72
2022/01/06 06:20:12;;;;;;;10.00;2.33;;;4.00;99.90;;;;;;5059391;28;20036;-71
2022/01/06 06:22:38;;;;;;;10.35;1.92;;;4.00;99.90;;;;;;5060775;28;20020;-71
2022/01/06 06:25:05;;;;;;;12.70;1.80;;;3.90;99.90;;;;;;5059036;28;20373;-71
2022/01/06 06:27:31;;;;;;;10.13;1.67;;;3.90;99.90;;;;;;5059787;28;20029;-72
2022/01/06 06:29:56;;;;;;;10.80;1.58;;;3.80;99.90;;;;;;5058143;28;20029;-72
2022/01/06 06:32:22;;;;;;;9.95;1.50;;;3.80;99.90;;;;;;5058157;28;20059;-72
2022/01/06 06:34:48;;;;;;;11.60;1.70;;;3.80;99.90;;;;;;5058077;28;20021;-73
2022/01/06 06:37:14;;;;;;;9.85;1.63;;;3.80;99.90;;;;;;5058001;28;20048;-72
2022/01/06 06:39:39;;;;;;;8.65;1.48;;;3.80;99.90;;;;;;5058269;28;20025;-73
2022/01/06 06:42:05;;;;;;;13.25;1.70;;;3.70;99.90;;;;;;5058851;28;20024;-72
2022/01/06 06:44:31;;;;;;;10.85;1.70;;;3.70;99.90;;;;;;5066951;28;20065;-73
2022/01/06 06:46:56;;;;;;;7.70;1.92;;;3.70;99.90;;;;;;5067831;28;20032;-74
2022/01/06 06:49:22;;;;;;;11.00;1.85;;;3.70;99.90;;;;;;5064186;28;20024;-73
2022/01/06 06:51:48;;;;;;;11.80;2.13;;;3.70;99.90;;;;;;5061793;28;20033;-73
2022/01/06 06:54:14;;;;;;;9.70;1.95;;;3.70;99.90;;;;;;5063379;28;20104;-73
2022/01/06 06:56:41;;;;;;;12.80;1.77;;;3.70;99.90;;;;;;5062902;28;20024;-73
2022/01/06 06:59:07;;;;;;;9.50;1.88;;;3.60;99.90;;;;;;5044898;28;20024;-73
2022/01/06 07:01:33;;;;;;;9.88;1.67;;;3.60;99.90;;;;;;5068646;28;20070;-73
2022/01/06 07:03:58;;;;;;;7.75;1.52;;;3.60;99.90;;;;;;5066180;28;20151;-74
2022/01/06 07:06:24;;;;;;;11.63;2.17;;;3.60;99.90;;;;;;5062948;28;20492;-72
2022/01/06 07:08:49;;;;;;;13.60;1.80;;;3.60;99.90;;;;;;5079207;28;20033;-73
2022/01/06 07:11:15;;;;;;;12.10;1.90;;;3.60;99.90;;;;;;5055556;28;20032;-73
2022/01/06 07:13:40;;;;;;;6.55;1.40;;;3.60;99.90;;;;;;5063131;28;20021;-72
2022/01/06 07:16:06;;;;;;;12.38;1.83;;;3.60;99.90;;;;;;5076720;28;20055;-72
2022/01/06 07:18:32;;;;;;;11.30;1.67;;;3.50;99.90;;;;;;5080728;28;20024;-73
2022/01/06 07:20:57;;;;;;;7.65;1.85;;;3.60;99.90;;;;;;5081652;28;20020;-72
2022/01/06 07:23:23;;;;;;;10.90;1.77;;;3.50;99.90;;;;;;5080309;28;20035;-72
2022/01/06 07:25:49;;;;;;;7.97;1.60;;;3.60;99.90;;;;;;5080753;28;20024;-73
2022/01/06 07:28:14;;;;;;;12.88;2.42;;;3.60;99.90;;;;;;5079386;28;20506;-73
2022/01/06 07:30:40;;;;;;;10.52;1.75;;;3.50;99.90;;;;;;5060413;28;20035;-73
2022/01/06 07:33:06;;;;;;;17.27;1.98;;;3.50;99.90;;;;;;5058908;28;20021;-73
2022/01/06 07:35:31;;;;;;;14.18;2.30;;;3.50;99.90;;;;;;5060035;28;20025;-72
2022/01/06 07:37:57;;;;;;;12.23;1.83;;;3.50;99.90;;;;;;5063324;28;20507;-72
2022/01/06 07:40:22;;;;;;;16.48;2.28;;;3.50;99.90;;;;;;5061248;28;20252;-72
2022/01/06 07:42:49;;;;;;;15.23;2.10;;;3.50;99.90;;;;;;5061824;28;20487;-73
2022/01/06 07:45:16;;;;;;;14.15;2.20;;;3.50;99.90;;;;;;5044383;28;20021;-72
2022/01/06 07:48:03;;;;;;;12.02;2.03;;;3.50;99.90;;;;;;5062809;28;20071;-72
2022/01/06 07:50:31;;;;;;;15.02;2.45;;;3.50;99.90;;;;;;5061356;28;20037;-72
2022/01/06 07:52:57;;;;;;;14.13;1.80;;;3.50;99.90;;;;;;5060308;28;20075;-72
2022/01/06 07:55:22;;;;;;;9.88;1.95;;;3.50;99.90;;;;;;5061208;28;20081;-72
2022/01/06 07:57:49;;;;;;;18.83;2.63;;;3.50;99.90;;;;;;5060866;28;20036;-72
2022/01/06 08:00:15;;;;;;;11.55;2.20;;;3.50;99.90;;;;;;5059706;28;20032;-72
2022/01/06 08:02:41;;;;;;;13.40;2.95;;;3.50;99.90;;;;;;5059761;28;20076;-72
2022/01/06 08:05:10;;;;;;;14.25;2.42;;;3.50;99.90;;;;;;5062151;28;20032;-72
2022/01/06 08:07:36;;;;;;;13.75;2.80;;;3.50;99.90;;;;;;5063208;28;20041;-72
2022/01/06 08:10:02;;;;;;;22.90;2.80;;;3.50;99.90;;;;;;5064493;28;20029;-72
2022/01/06 08:12:28;;;;;;;15.52;2.47;;;3.50;99.90;;;;;;5081848;28;20490;-72
2022/01/06 08:14:53;;;;;;;11.20;2.05;;;3.50;99.90;;;;;;5081263;28;20408;-73
2022/01/06 08:17:19;;;;;;;14.13;2.20;;;3.60;99.90;;;;;;5062817;28;20040;-72
2022/01/06 08:19:45;;;;;;;12.85;2.22;;;3.60;99.90;;;;;;5080250;28;20035;-72
2022/01/06 08:22:11;;;;;;;21.55;2.95;;;3.60;99.90;;;;;;5080331;28;20021;-72
2022/01/06 08:24:36;;;;;;;15.32;2.58;;;3.60;99.90;;;;;;5078270;28;20074;-72
2022/01/06 08:27:08;;;;;;;14.75;2.97;;;3.70;99.90;;;;;;5074347;28;20484;-74
2022/01/06 08:29:35;;;;;;;13.52;2.70;;;3.70;99.90;;;;;;5063094;28;20036;-73
2022/01/06 08:32:01;;;;;;;14.48;2.67;;;3.80;99.90;;;;;;5063240;28;20025;-73
2022/01/06 08:34:27;;;;;;;15.30;3.00;;;3.80;99.90;;;;;;5066419;28;20023;-72
2022/01/06 08:36:53;;;;;;;13.93;2.50;;;3.90;99.90;;;;;;5067206;28;20031;-73
2022/01/06 08:39:20;;;;;;;10.60;2.33;;;3.90;99.90;;;;;;5068272;28;20016;-72
2022/01/06 08:41:47;;;;;;;15.55;2.85;;;3.90;99.90;;;;;;5055684;28;20075;-73
2022/01/06 08:44:12;;;;;;;17.98;3.00;;;3.90;99.90;;;;;;5063145;28;20108;-72
2022/01/06 08:46:38;;;;;;;15.07;2.72;;;3.90;99.90;;;;;;5066665;28;20052;-72
2022/01/06 08:49:06;;;;;;;13.38;2.55;;;4.00;99.90;;;;;;5069246;28;20456;-72
2022/01/06 08:51:32;;;;;;;10.98;2.35;;;4.00;99.90;;;;;;5063846;28;20472;-72
2022/01/06 08:53:57;;;;;;;13.68;2.85;;;4.00;99.90;;;;;;5062751;28;20030;-72
2022/01/06 08:56:23;;;;;;;12.95;3.00;;;4.10;99.90;;;;;;5064512;28;20067;-72
2022/01/06 08:58:49;;;;;;;12.57;2.85;;;4.10;99.90;;;;;;5055407;28;20469;-72
2022/01/06 09:01:15;;;;;;;11.75;2.80;;;4.20;99.90;;;;;;5061472;28;20121;-73
2022/01/06 09:03:41;;;;;;;17.60;2.85;;;4.30;99.90;;;;;;5061340;28;20469;-73
2022/01/06 09:06:06;;;;;;;13.98;2.92;;;4.30;99.90;;;;;;5057021;28;20032;-74
2022/01/06 09:08:32;;;;;;;19.02;3.13;;;4.30;99.90;;;;;;5058564;28;20044;-72
2022/01/06 09:10:57;;;;;;;12.25;3.30;;;4.40;99.90;;;;;;5071247;28;20424;-71
2022/01/06 09:13:23;;;;;;;22.63;4.53;;;4.50;99.90;;;;;;5060360;28;20013;-72
2022/01/06 09:15:49;;;;;;;25.40;4.75;;;4.50;99.90;;;;;;5065007;28;20016;-73
2022/01/06 09:18:14;;;;;;;16.17;4.90;;;4.60;99.90;;;;;;5065811;28;20025;-72
2022/01/06 09:20:40;;;;;;;21.35;5.00;;;4.60;99.90;;;;;;5066192;28;20460;-72
2022/01/06 09:23:06;;;;;;;23.65;5.13;;;4.70;99.90;;;;;;5065713;28;20016;-73
2022/01/06 09:25:32;;;;;;;21.13;4.85;;;4.70;99.90;;;;;;5064764;28;20051;-73
2022/01/06 09:27:57;;;;;;;32.47;6.25;;;4.70;99.90;;;;;;5066234;28;20021;-72
2022/01/06 09:30:25;;;;;;;28.77;6.43;;;4.80;99.90;;;;;;5051717;28;20032;-72
2022/01/06 09:32:51;;;;;;;16.48;5.05;;;4.80;99.90;;;;;;5070067;28;20100;-72
2022/01/06 09:35:17;;;;;;;20.27;5.38;;;4.80;99.90;;;;;;5066653;28;20059;-72
2022/01/06 09:37:43;;;;;;;15.68;4.50;;;4.90;99.90;;;;;;5061002;28;20100;-73
2022/01/06 09:40:09;;;;;;;19.80;4.32;;;4.90;99.90;;;;;;5067973;28;20484;-73
2022/01/06 09:42:35;;;;;;;15.32;3.75;;;5.00;99.90;;;;;;5063703;28;20654;-73
2022/01/06 09:45:03;;;;;;;13.98;4.10;;;5.00;99.90;;;;;;5059055;28;20436;-73
2022/01/06 09:47:30;;;;;;;16.73;4.35;;;5.10;99.90;;;;;;5051463;28;20024;-72
2022/01/06 09:49:57;;;;;;;22.90;3.92;;;5.10;99.90;;;;;;5065553;28;20021;-73
2022/01/06 09:52:23;;;;;;;18.95;3.75;;;5.20;99.90;;;;;;5062090;28;20013;-73
2022/01/06 09:54:49;;;;;;;16.90;3.85;;;5.30;99.90;;;;;;5065407;28;20036;-73
2022/01/06 09:57:15;;;;;;;22.00;4.03;;;5.40;99.90;;;;;;5058894;28;20013;-73
2022/01/06 09:59:43;;;;;;;18.08;3.17;;;5.40;99.90;;;;;;5058364;28;20055;-72
2022/01/06 10:02:16;;;;;;;15.25;2.60;;;5.60;99.90;;;;;;5062457;28;20492;-73
2022/01/06 10:04:47;;;;;;;15.25;3.03;;;5.70;99.90;;;;;;5072146;28;20407;-72
2022/01/06 10:07:16;;;;;;;14.48;2.50;;;5.70;99.90;;;;;;5066963;28;20473;-72
2022/01/06 10:09:42;;;;;;;13.25;2.90;;;5.90;99.90;;;;;;5064614;28;20021;-72
2022/01/06 10:12:11;;;;;;;17.30;3.20;;;5.90;99.90;;;;;;5062856;28;20389;-72
2022/01/06 10:14:45;;;;;;;16.67;2.72;;;6.00;99.90;;;;;;5063674;28;20024;-72
2022/01/06 10:17:14;;;;;;;19.92;2.45;;;6.00;99.90;;;;;;5063050;28;20024;-72
2022/01/06 10:19:41;;;;;;;13.40;2.65;;;6.10;99.90;;;;;;5040874;28;20021;-74
2022/01/06 10:22:42;;;;;;;13.43;2.67;;;6.10;99.90;;;;;;5061099;28;20091;-73
2022/01/06 10:25:08;;;;;;;14.07;2.33;;;6.10;99.90;;;;;;5070397;28;20049;-73
2022/01/06 10:27:33;;;;;;;19.40;2.92;;;6.10;99.90;;;;;;5061066;28;20530;-73
2022/01/06 10:30:05;;;;;;;10.13;2.50;;;6.20;99.90;;;;;;5060040;28;20060;-74
2022/01/06 10:32:32;;;;;;;17.63;2.55;;;6.20;99.90;;;;;;5044911;28;20032;-74
2022/01/06 10:35:03;;;;;;;13.73;2.42;;;6.20;99.90;;;;;;5073942;28;20091;-75
2022/01/06 10:37:35;;;;;;;19.92;2.55;;;6.30;99.90;;;;;;5058164;28;20016;-75
2022/01/06 10:40:16;;;;;;;14.70;2.22;;;6.30;99.90;;;;;;5070982;28;20488;-74
2022/01/06 10:42:46;;;;;;;10.40;1.70;;;6.40;99.90;;;;;;5051867;28;20009;-74
2022/01/06 10:45:27;;;;;;;10.45;2.00;;;6.50;99.90;;;;;;5054514;28;20021;-73
2022/01/06 10:47:58;;;;;;;12.30;1.75;;;6.60;99.90;;;;;;5058255;28;20044;-76
2022/01/06 10:50:32;;;;;;;11.30;1.45;;;6.70;99.90;;;;;;5040036;28;20025;-74
2022/01/06 10:52:58;;;;;;;7.53;1.30;;;6.80;99.90;;;;;;5060728;28;20024;-73
2022/01/06 10:55:28;;;;;;;10.93;1.45;;;6.80;99.90;;;;;;5060594;28;20628;-73
2022/01/06 10:57:56;;;;;;;9.60;1.70;;;6.80;99.90;;;;;;5061607;28;20047;-73
2022/01/06 11:00:26;;;;;;;12.77;1.33;;;6.70;99.90;;;;;;5065640;28;20019;-74
2022/01/06 11:02:53;;;;;;;7.97;1.27;;;6.70;99.90;;;;;;5064789;28;20350;-75
2022/01/06 11:05:18;;;;;;;5.43;1.58;;;6.60;99.90;;;;;;5063654;28;20013;-74
2022/01/06 11:07:44;;;;;;;11.07;1.60;;;6.60;99.90;;;;;;5053604;28;20396;-74
2022/01/06 11:10:16;;;;;;;13.07;1.60;;;6.60;99.90;;;;;;5061123;28;20138;-74
2022/01/06 11:12:41;;;;;;;7.85;1.50;;;6.60;99.90;;;;;;5059025;28;20021;-73
2022/01/06 11:15:08;;;;;;;13.38;1.58;;;6.60;99.90;;;;;;5053575;28;20380;-73
2022/01/06 11:17:35;;;;;;;11.00;1.67;;;6.50;99.90;;;;;;5052090;28;20120;-73
2022/01/06 11:20:00;;;;;;;6.18;1.52;;;6.50;99.90;;;;;;5064571;28;20020;-73
2022/01/06 11:22:27;;;;;;;9.90;2.00;;;6.50;99.90;;;;;;5064978;28;20380;-72
2022/01/06 11:24:57;;;;;;;6.65;1.27;;;6.40;99.90;;;;;;5060552;28;20052;-73
2022/01/06 11:27:36;;;;;;;10.80;1.42;;;6.40;99.90;;;;;;5072556;28;20021;-73
2022/01/06 11:30:13;;;;;;;6.88;1.50;;;6.40;99.90;;;;;;5072206;28;20109;-73
2022/01/06 11:32:41;;;;;;;6.45;1.30;;;6.30;99.90;;;;;;5064059;28;20036;-73
2022/01/06 11:35:18;;;;;;;6.53;1.35;;;6.30;99.90;;;;;;5072309;28;20028;-73
2022/01/06 11:37:49;;;;;;;6.35;1.33;;;6.30;99.90;;;;;;5071067;28;20039;-73
2022/01/06 11:40:27;;;;;;;8.60;1.50;;;6.30;99.90;;;;;;5069699;28;20373;-72
2022/01/06 11:42:57;;;;;;;8.50;1.40;;;6.30;99.90;;;;;;5058480;28;20036;-74
2022/01/06 11:45:23;;;;;;;17.73;2.00;;;6.30;99.90;;;;;;5061567;28;20151;-74
2022/01/06 11:48:09;;;;;;;7.97;1.88;;;6.30;99.90;;;;;;5063456;28;20370;-74
2022/01/06 11:50:56;;;;;;;8.38;2.10;;;6.30;99.90;;;;;;5060658;28;20041;-73
2022/01/06 11:53:32;;;;;;;9.65;1.95;;;6.30;99.90;;;;;;5060709;28;20048;-72
2022/01/06 11:55:59;;;;;;;15.55;2.28;;;6.30;99.90;;;;;;5055632;28;20036;-73
2022/01/06 11:58:25;;;;;;;10.70;2.03;;;6.30;99.90;;;;;;5057749;28;20032;-74
2022/01/06 12:01:02;;;;;;;13.77;2.75;;;6.30;99.90;;;;;;5054675;28;20065;-73
2022/01/06 12:03:40;;;;;;;7.50;2.28;;;6.30;99.90;;;;;;5058516;28;20132;-73
2022/01/06 12:06:07;;;;;;;13.27;2.92;;;6.30;99.90;;;;;;5053553;28;20021;-74
2022/01/06 12:08:34;;;;;;;11.30;2.20;;;6.40;99.90;;;;;;5062382;28;20029;-73
2022/01/06 12:11:00;;;;;;;7.47;1.60;;;6.40;99.90;;;;;;5058797;28;20476;-73
2022/01/06 12:13:25;;;;;;;11.85;1.92;;;6.50;99.90;;;;;;5061090;28;20041;-74
2022/01/06 12:15:56;;;;;;;7.05;1.67;;;6.50;99.90;;;;;;5041502;28;20056;-73
2022/01/06 12:18:24;;;;;;;10.55;1.70;;;6.60;99.90;;;;;;5059344;28;20491;-73
2022/01/06 12:20:50;;;;;;;7.60;1.70;;;6.70;99.90;;;;;;5054444;28;20423;-74
2022/01/06 12:23:17;;;;;;;10.27;1.90;;;6.70;99.90;;;;;;5053464;28;20016;-73
2022/01/06 12:26:01;;;;;;;11.50;1.75;;;6.80;99.90;;;;;;5067509;28;20349;-74
2022/01/06 12:28:28;;;;;;;12.50;1.70;;;6.90;99.90;;;;;;5066283;28;20029;-74
2022/01/06 12:30:58;;;;;;;9.95;1.95;;;6.90;99.90;;;;;;5061249;28;20069;-74
2022/01/06 12:33:23;;;;;;;10.82;1.55;;;6.90;99.90;;;;;;5061953;28;20032;-74
2022/01/06 12:35:53;;;;;;;11.60;1.80;;;6.90;99.90;;;;;;5061537;28;20029;-74
2022/01/06 12:38:30;;;;;;;10.45;2.17;;;7.00;99.90;;;;;;5045819;28;20025;-74
2022/01/06 12:40:55;;;;;;;12.18;1.85;;;6.90;99.90;;;;;;5053958;28;20024;-73
2022/01/06 12:43:24;;;;;;;9.82;2.33;;;7.00;99.90;;;;;;5053551;28;20017;-74
2022/01/06 12:46:07;;;;;;;12.98;2.25;;;7.00;99.90;;;;;;5052725;28;20074;-74
2022/01/06 12:48:38;;;;;;;12.60;2.25;;;7.00;99.90;;;;;;5057992;28;20013;-72
2022/01/06 12:51:04;;;;;;;14.43;2.40;;;7.00;99.90;;;;;;5064144;28;20029;-73
2022/01/06 12:53:37;;;;;;;15.82;2.40;;;7.00;99.90;;;;;;5059787;28;20021;-72
2022/01/06 12:56:03;;;;;;;12.68;2.50;;;6.90;99.90;;;;;;5061402;28;20024;-72